sensor_id;sensor_type;location;lat;lon;timestamp;P1;durP1;ratioP1;P2;durP2;ratioP2
77535;SDS011;70085;44.530;0.094;2023-06-04T00:03:46;5.77;;;3.47;;
77535;SDS011;70085;44.530;0.094;2023-06-04T00:09:18;6.23;;;4.17;;
77535;SDS011;70085;44.530;0.094;2023-06-04T00:14:51;5.87;;;4.03;;
77535;SDS011;70085;44.530;0.094;2023-06-04T00:20:24;6.97;;;4.10;;
77535;SDS011;70085;44.530;0.094;2023-06-04T00:25:57;6.47;;;4.47;;
77535;SDS011;70085;44.530;0.094;2023-06-04T00:31:29;8.77;;;5.63;;
77535;SDS011;70085;44.530;0.094;2023-06-04T00:37:02;6.43;;;4.10;;
77535;SDS011;70085;44.530;0.094;2023-06-04T00:42:35;9.67;;;4.60;;
77535;SDS011;70085;44.530;0.094;2023-06-04T00:48:08;8.00;;;4.80;;
77535;SDS011;70085;44.530;0.094;2023-06-04T00:53:41;6.87;;;4.37;;
77535;SDS011;70085;44.530;0.094;2023-06-04T00:59:15;6.93;;;4.57;;
77535;SDS011;70085;44.530;0.094;2023-06-04T01:04:49;9.20;;;5.43;;
77535;SDS011;70085;44.530;0.094;2023-06-04T01:10:22;7.43;;;4.60;;
77535;SDS011;70085;44.530;0.094;2023-06-04T01:15:56;7.30;;;4.60;;
77535;SDS011;70085;44.530;0.094;2023-06-04T01:21:30;9.33;;;5.27;;
77535;SDS011;70085;44.530;0.094;2023-06-04T01:27:04;7.50;;;5.03;;
77535;SDS011;70085;44.530;0.094;2023-06-04T01:32:36;9.63;;;5.67;;
77535;SDS011;70085;44.530;0.094;2023-06-04T01:43:41;9.57;;;4.90;;
77535;SDS011;70085;44.530;0.094;2023-06-04T01:49:15;6.60;;;4.33;;
77535;SDS011;70085;44.530;0.094;2023-06-04T01:54:49;7.80;;;5.27;;
77535;SDS011;70085;44.530;0.094;2023-06-04T02:00:20;7.60;;;4.80;;
77535;SDS011;70085;44.530;0.094;2023-06-04T02:05:54;7.00;;;4.43;;
77535;SDS011;70085;44.530;0.094;2023-06-04T02:11:28;10.00;;;4.50;;
77535;SDS011;70085;44.530;0.094;2023-06-04T02:17:02;8.50;;;4.50;;
77535;SDS011;70085;44.530;0.094;2023-06-04T02:22:35;10.13;;;4.80;;
77535;SDS011;70085;44.530;0.094;2023-06-04T02:28:08;6.30;;;4.97;;
77535;SDS011;70085;44.530;0.094;2023-06-04T02:33:42;5.93;;;4.40;;
77535;SDS011;70085;44.530;0.094;2023-06-04T02:39:14;9.93;;;5.03;;
77535;SDS011;70085;44.530;0.094;2023-06-04T02:44:48;7.17;;;4.07;;
77535;SDS011;70085;44.530;0.094;2023-06-04T02:50:20;6.67;;;4.30;;
77535;SDS011;70085;44.530;0.094;2023-06-04T02:55:53;8.33;;;4.57;;
77535;SDS011;70085;44.530;0.094;2023-06-04T03:01:26;8.70;;;4.90;;
77535;SDS011;70085;44.530;0.094;2023-06-04T03:06:58;7.73;;;4.47;;
77535;SDS011;70085;44.530;0.094;2023-06-04T03:12:31;8.33;;;4.37;;
77535;SDS011;70085;44.530;0.094;2023-06-04T03:18:05;5.53;;;4.00;;
77535;SDS011;70085;44.530;0.094;2023-06-04T03:23:38;7.27;;;5.00;;
77535;SDS011;70085;44.530;0.094;2023-06-04T03:29:12;9.73;;;4.83;;
77535;SDS011;70085;44.530;0.094;2023-06-04T03:34:44;7.60;;;4.90;;
77535;SDS011;70085;44.530;0.094;2023-06-04T03:40:16;7.27;;;5.00;;
77535;SDS011;70085;44.530;0.094;2023-06-04T03:45:49;6.80;;;5.50;;
77535;SDS011;70085;44.530;0.094;2023-06-04T03:51:21;11.67;;;5.13;;
77535;SDS011;70085;44.530;0.094;2023-06-04T03:56:54;7.37;;;5.23;;
77535;SDS011;70085;44.530;0.094;2023-06-04T04:02:27;8.30;;;5.63;;
77535;SDS011;70085;44.530;0.094;2023-06-04T04:08:00;8.00;;;5.10;;
77535;SDS011;70085;44.530;0.094;2023-06-04T04:13:32;7.67;;;5.13;;
77535;SDS011;70085;44.530;0.094;2023-06-04T04:19:08;6.43;;;4.77;;
77535;SDS011;70085;44.530;0.094;2023-06-04T04:24:38;11.30;;;4.73;;
77535;SDS011;70085;44.530;0.094;2023-06-04T04:30:11;8.87;;;5.00;;
77535;SDS011;70085;44.530;0.094;2023-06-04T04:35:44;7.90;;;5.50;;
77535;SDS011;70085;44.530;0.094;2023-06-04T04:41:16;9.43;;;5.90;;
77535;SDS011;70085;44.530;0.094;2023-06-04T04:46:50;9.50;;;5.60;;
77535;SDS011;70085;44.530;0.094;2023-06-04T04:52:23;12.60;;;6.20;;
77535;SDS011;70085;44.530;0.094;2023-06-04T04:57:57;10.70;;;5.17;;
77535;SDS011;70085;44.530;0.094;2023-06-04T05:03:30;7.97;;;4.97;;
77535;SDS011;70085;44.530;0.094;2023-06-04T05:09:02;7.53;;;5.40;;
77535;SDS011;70085;44.530;0.094;2023-06-04T05:14:36;9.57;;;5.47;;
77535;SDS011;70085;44.530;0.094;2023-06-04T05:20:12;7.23;;;4.90;;
77535;SDS011;70085;44.530;0.094;2023-06-04T05:25:41;9.00;;;5.43;;
77535;SDS011;70085;44.530;0.094;2023-06-04T05:31:16;8.17;;;4.57;;
77535;SDS011;70085;44.530;0.094;2023-06-04T05:36:48;6.80;;;4.97;;
77535;SDS011;70085;44.530;0.094;2023-06-04T05:42:21;10.40;;;6.43;;
77535;SDS011;70085;44.530;0.094;2023-06-04T05:47:55;10.77;;;7.80;;
77535;SDS011;70085;44.530;0.094;2023-06-04T05:53:28;13.73;;;8.97;;
77535;SDS011;70085;44.530;0.094;2023-06-04T05:59:01;20.30;;;11.10;;
77535;SDS011;70085;44.530;0.094;2023-06-04T06:04:35;19.30;;;11.23;;
77535;SDS011;70085;44.530;0.094;2023-06-04T06:10:08;15.97;;;9.80;;
77535;SDS011;70085;44.530;0.094;2023-06-04T06:15:41;14.87;;;8.57;;
77535;SDS011;70085;44.530;0.094;2023-06-04T06:21:15;16.50;;;9.83;;
77535;SDS011;70085;44.530;0.094;2023-06-04T06:26:48;16.03;;;10.20;;
77535;SDS011;70085;44.530;0.094;2023-06-04T06:32:22;15.70;;;10.87;;
77535;SDS011;70085;44.530;0.094;2023-06-04T06:37:55;15.43;;;9.50;;
77535;SDS011;70085;44.530;0.094;2023-06-04T06:43:27;15.57;;;10.47;;
77535;SDS011;70085;44.530;0.094;2023-06-04T06:49:00;14.17;;;9.83;;
77535;SDS011;70085;44.530;0.094;2023-06-04T06:54:33;14.70;;;10.17;;
77535;SDS011;70085;44.530;0.094;2023-06-04T07:00:07;14.17;;;9.17;;
77535;SDS011;70085;44.530;0.094;2023-06-04T07:05:39;14.67;;;10.30;;
77535;SDS011;70085;44.530;0.094;2023-06-04T07:11:12;15.63;;;10.33;;
77535;SDS011;70085;44.530;0.094;2023-06-04T07:16:45;19.07;;;12.03;;
77535;SDS011;70085;44.530;0.094;2023-06-04T07:22:17;15.77;;;10.60;;
77535;SDS011;70085;44.530;0.094;2023-06-04T07:27:51;19.33;;;11.63;;
77535;SDS011;70085;44.530;0.094;2023-06-04T07:33:24;17.70;;;10.97;;
77535;SDS011;70085;44.530;0.094;2023-06-04T07:38:57;17.57;;;10.57;;
77535;SDS011;70085;44.530;0.094;2023-06-04T07:44:31;15.70;;;9.83;;
77535;SDS011;70085;44.530;0.094;2023-06-04T07:50:04;15.87;;;10.97;;
77535;SDS011;70085;44.530;0.094;2023-06-04T07:55:36;17.37;;;11.03;;
77535;SDS011;70085;44.530;0.094;2023-06-04T08:01:09;19.80;;;10.87;;
77535;SDS011;70085;44.530;0.094;2023-06-04T08:06:45;16.17;;;10.13;;
77535;SDS011;70085;44.530;0.094;2023-06-04T08:12:16;14.83;;;9.87;;
77535;SDS011;70085;44.530;0.094;2023-06-04T08:17:49;19.53;;;11.97;;
77535;SDS011;70085;44.530;0.094;2023-06-04T08:23:21;20.60;;;12.00;;
77535;SDS011;70085;44.530;0.094;2023-06-04T08:28:55;18.23;;;11.80;;
77535;SDS011;70085;44.530;0.094;2023-06-04T08:34:28;20.83;;;12.30;;
77535;SDS011;70085;44.530;0.094;2023-06-04T08:40:02;23.83;;;11.90;;
77535;SDS011;70085;44.530;0.094;2023-06-04T08:45:37;14.13;;;9.40;;
77535;SDS011;70085;44.530;0.094;2023-06-04T08:51:09;17.40;;;9.57;;
77535;SDS011;70085;44.530;0.094;2023-06-04T08:56:42;19.83;;;9.33;;
77535;SDS011;70085;44.530;0.094;2023-06-04T09:02:14;13.23;;;9.23;;
77535;SDS011;70085;44.530;0.094;2023-06-04T09:07:47;12.47;;;8.87;;
77535;SDS011;70085;44.530;0.094;2023-06-04T09:18:53;13.73;;;8.97;;
77535;SDS011;70085;44.530;0.094;2023-06-04T09:30:01;11.63;;;8.37;;
77535;SDS011;70085;44.530;0.094;2023-06-04T09:35:34;14.07;;;9.50;;
77535;SDS011;70085;44.530;0.094;2023-06-04T09:41:11;13.93;;;8.17;;
77535;SDS011;70085;44.530;0.094;2023-06-04T09:46:40;11.50;;;8.00;;
77535;SDS011;70085;44.530;0.094;2023-06-04T09:52:13;20.00;;;7.73;;
77535;SDS011;70085;44.530;0.094;2023-06-04T09:57:46;11.73;;;7.97;;
77535;SDS011;70085;44.530;0.094;2023-06-04T10:03:18;13.70;;;8.00;;
77535;SDS011;70085;44.530;0.094;2023-06-04T10:08:50;10.80;;;8.50;;
77535;SDS011;70085;44.530;0.094;2023-06-04T10:14:22;10.90;;;7.50;;
77535;SDS011;70085;44.530;0.094;2023-06-04T10:19:55;13.77;;;8.07;;
77535;SDS011;70085;44.530;0.094;2023-06-04T10:25:28;12.07;;;7.77;;
77535;SDS011;70085;44.530;0.094;2023-06-04T10:31:01;18.10;;;9.80;;
77535;SDS011;70085;44.530;0.094;2023-06-04T10:36:41;9.47;;;6.77;;
77535;SDS011;70085;44.530;0.094;2023-06-04T10:42:06;10.43;;;7.07;;
77535;SDS011;70085;44.530;0.094;2023-06-04T10:47:41;13.13;;;7.97;;
77535;SDS011;70085;44.530;0.094;2023-06-04T10:53:10;9.23;;;6.27;;
77535;SDS011;70085;44.530;0.094;2023-06-04T10:58:43;14.10;;;8.43;;
77535;SDS011;70085;44.530;0.094;2023-06-04T11:04:20;13.10;;;8.70;;
77535;SDS011;70085;44.530;0.094;2023-06-04T11:09:49;12.23;;;7.57;;
77535;SDS011;70085;44.530;0.094;2023-06-04T11:15:23;10.33;;;7.73;;
77535;SDS011;70085;44.530;0.094;2023-06-04T11:20:59;10.20;;;7.20;;
77535;SDS011;70085;44.530;0.094;2023-06-04T11:26:30;11.93;;;7.70;;
77535;SDS011;70085;44.530;0.094;2023-06-04T11:32:00;11.90;;;6.50;;
77535;SDS011;70085;44.530;0.094;2023-06-04T11:37:34;9.10;;;6.47;;
77535;SDS011;70085;44.530;0.094;2023-06-04T11:43:08;8.03;;;6.47;;
77535;SDS011;70085;44.530;0.094;2023-06-04T11:48:37;8.73;;;6.20;;
77535;SDS011;70085;44.530;0.094;2023-06-04T11:54:10;8.77;;;6.03;;
77535;SDS011;70085;44.530;0.094;2023-06-04T11:59:43;7.50;;;6.00;;
77535;SDS011;70085;44.530;0.094;2023-06-04T12:05:19;6.50;;;4.93;;
77535;SDS011;70085;44.530;0.094;2023-06-04T12:10:51;8.63;;;6.47;;
77535;SDS011;70085;44.530;0.094;2023-06-04T12:16:22;9.40;;;6.00;;
77535;SDS011;70085;44.530;0.094;2023-06-04T12:22:02;9.30;;;6.23;;
77535;SDS011;70085;44.530;0.094;2023-06-04T12:27:27;7.17;;;6.00;;
77535;SDS011;70085;44.530;0.094;2023-06-04T12:33:01;6.43;;;4.53;;
77535;SDS011;70085;44.530;0.094;2023-06-04T12:38:33;10.73;;;9.83;;
77535;SDS011;70085;44.530;0.094;2023-06-04T12:44:06;10.57;;;9.67;;
77535;SDS011;70085;44.530;0.094;2023-06-04T12:49:40;10.27;;;9.03;;
77535;SDS011;70085;44.530;0.094;2023-06-04T12:55:14;12.50;;;11.50;;
77535;SDS011;70085;44.530;0.094;2023-06-04T13:00:47;14.07;;;12.97;;
77535;SDS011;70085;44.530;0.094;2023-06-04T13:06:20;32.70;;;30.80;;
77535;SDS011;70085;44.530;0.094;2023-06-04T13:11:50;10.90;;;10.10;;
77535;SDS011;70085;44.530;0.094;2023-06-04T13:17:24;13.23;;;12.23;;
77535;SDS011;70085;44.530;0.094;2023-06-04T13:22:57;14.20;;;13.30;;
77535;SDS011;70085;44.530;0.094;2023-06-04T13:28:30;15.17;;;13.93;;
77535;SDS011;70085;44.530;0.094;2023-06-04T13:34:02;12.30;;;11.40;;
77535;SDS011;70085;44.530;0.094;2023-06-04T13:39:35;11.93;;;11.13;;
77535;SDS011;70085;44.530;0.094;2023-06-04T13:45:08;8.47;;;7.77;;
77535;SDS011;70085;44.530;0.094;2023-06-04T13:50:40;8.40;;;7.77;;
77535;SDS011;70085;44.530;0.094;2023-06-04T13:56:12;7.33;;;6.73;;
77535;SDS011;70085;44.530;0.094;2023-06-04T14:01:44;7.70;;;6.90;;
77535;SDS011;70085;44.530;0.094;2023-06-04T14:07:15;8.07;;;7.37;;
77535;SDS011;70085;44.530;0.094;2023-06-04T14:12:50;9.63;;;8.93;;
77535;SDS011;70085;44.530;0.094;2023-06-04T14:18:22;7.90;;;7.30;;
77535;SDS011;70085;44.530;0.094;2023-06-04T14:23:54;9.50;;;8.80;;
77535;SDS011;70085;44.530;0.094;2023-06-04T14:29:27;7.57;;;6.97;;
77535;SDS011;70085;44.530;0.094;2023-06-04T14:35:00;8.00;;;7.30;;
77535;SDS011;70085;44.530;0.094;2023-06-04T14:40:36;7.73;;;6.90;;
77535;SDS011;70085;44.530;0.094;2023-06-04T14:46:06;1999.90;;;999.90;;
77535;SDS011;70085;44.530;0.094;2023-06-04T14:51:39;1999.90;;;999.90;;
77535;SDS011;70085;44.530;0.094;2023-06-04T14:57:13;1999.90;;;999.90;;
77535;SDS011;70085;44.530;0.094;2023-06-04T15:02:46;1999.90;;;999.90;;
77535;SDS011;70085;44.530;0.094;2023-06-04T15:08:19;1999.90;;;999.90;;
77535;SDS011;70085;44.530;0.094;2023-06-04T15:13:52;1999.90;;;999.90;;
77535;SDS011;70085;44.530;0.094;2023-06-04T15:19:24;1999.90;;;999.90;;
77535;SDS011;70085;44.530;0.094;2023-06-04T15:24:56;1999.90;;;999.90;;
77535;SDS011;70085;44.530;0.094;2023-06-04T15:30:29;1999.90;;;999.90;;
77535;SDS011;70085;44.530;0.094;2023-06-04T15:36:01;1999.90;;;999.90;;
77535;SDS011;70085;44.530;0.094;2023-06-04T15:41:34;1999.90;;;999.90;;
77535;SDS011;70085;44.530;0.094;2023-06-04T15:47:08;1999.90;;;999.90;;
77535;SDS011;70085;44.530;0.094;2023-06-04T15:52:40;1999.90;;;999.90;;
77535;SDS011;70085;44.530;0.094;2023-06-04T15:58:14;1999.90;;;999.90;;
77535;SDS011;70085;44.530;0.094;2023-06-04T16:03:47;1999.90;;;999.90;;
77535;SDS011;70085;44.530;0.094;2023-06-04T16:09:19;1999.90;;;999.90;;
77535;SDS011;70085;44.530;0.094;2023-06-04T16:14:53;1999.90;;;999.90;;
77535;SDS011;70085;44.530;0.094;2023-06-04T16:20:27;1999.90;;;999.90;;
77535;SDS011;70085;44.530;0.094;2023-06-04T16:26:00;1999.90;;;999.90;;
77535;SDS011;70085;44.530;0.094;2023-06-04T16:31:33;1999.90;;;999.90;;
77535;SDS011;70085;44.530;0.094;2023-06-04T16:37:06;1999.90;;;999.90;;
77535;SDS011;70085;44.530;0.094;2023-06-04T16:42:38;1999.90;;;999.90;;
77535;SDS011;70085;44.530;0.094;2023-06-04T16:48:09;1999.90;;;999.90;;
77535;SDS011;70085;44.530;0.094;2023-06-04T16:53:42;1999.90;;;999.90;;
77535;SDS011;70085;44.530;0.094;2023-06-04T16:59:16;1999.90;;;999.90;;
77535;SDS011;70085;44.530;0.094;2023-06-04T17:04:50;1999.90;;;999.90;;
77535;SDS011;70085;44.530;0.094;2023-06-04T17:10:27;1999.90;;;999.90;;
77535;SDS011;70085;44.530;0.094;2023-06-04T17:15:56;1999.90;;;999.90;;
77535;SDS011;70085;44.530;0.094;2023-06-04T17:21:29;1999.90;;;999.90;;
77535;SDS011;70085;44.530;0.094;2023-06-04T17:27:01;1999.90;;;999.90;;
77535;SDS011;70085;44.530;0.094;2023-06-04T17:32:32;1999.90;;;999.90;;
77535;SDS011;70085;44.530;0.094;2023-06-04T17:38:06;1999.90;;;999.90;;
77535;SDS011;70085;44.530;0.094;2023-06-04T17:43:39;1999.90;;;999.90;;
77535;SDS011;70085;44.530;0.094;2023-06-04T17:49:13;1999.90;;;999.90;;
77535;SDS011;70085;44.530;0.094;2023-06-04T17:54:42;1999.90;;;999.90;;
77535;SDS011;70085;44.530;0.094;2023-06-04T18:00:15;1999.90;;;999.90;;
77535;SDS011;70085;44.530;0.094;2023-06-04T18:05:49;1999.90;;;999.90;;
77535;SDS011;70085;44.530;0.094;2023-06-04T18:11:23;1999.90;;;999.90;;
77535;SDS011;70085;44.530;0.094;2023-06-04T18:16:56;1999.90;;;999.90;;
77535;SDS011;70085;44.530;0.094;2023-06-04T18:22:29;1999.90;;;999.90;;
77535;SDS011;70085;44.530;0.094;2023-06-04T18:28:02;1999.90;;;999.90;;
77535;SDS011;70085;44.530;0.094;2023-06-04T18:33:44;1999.90;;;999.90;;
77535;SDS011;70085;44.530;0.094;2023-06-04T18:39:07;1999.90;;;999.90;;
77535;SDS011;70085;44.530;0.094;2023-06-04T18:44:43;1999.90;;;999.90;;
77535;SDS011;70085;44.530;0.094;2023-06-04T18:50:14;1999.90;;;999.90;;
77535;SDS011;70085;44.530;0.094;2023-06-04T18:55:49;1999.90;;;999.90;;
77535;SDS011;70085;44.530;0.094;2023-06-04T19:01:19;1999.90;;;999.90;;
77535;SDS011;70085;44.530;0.094;2023-06-04T19:06:52;1999.90;;;999.90;;
77535;SDS011;70085;44.530;0.094;2023-06-04T19:12:25;1999.90;;;999.90;;
77535;SDS011;70085;44.530;0.094;2023-06-04T19:17:58;1999.90;;;999.90;;
77535;SDS011;70085;44.530;0.094;2023-06-04T19:23:32;1999.90;;;999.90;;
77535;SDS011;70085;44.530;0.094;2023-06-04T19:29:05;1999.90;;;999.90;;
77535;SDS011;70085;44.530;0.094;2023-06-04T19:34:37;1999.90;;;999.90;;
77535;SDS011;70085;44.530;0.094;2023-06-04T19:40:11;1999.90;;;999.90;;
77535;SDS011;70085;44.530;0.094;2023-06-04T19:45:46;1999.90;;;999.90;;
77535;SDS011;70085;44.530;0.094;2023-06-04T19:51:16;1999.90;;;999.90;;
77535;SDS011;70085;44.530;0.094;2023-06-04T19:56:50;1999.90;;;999.90;;
77535;SDS011;70085;44.530;0.094;2023-06-04T20:02:22;1999.90;;;999.90;;
77535;SDS011;70085;44.530;0.094;2023-06-04T20:07:56;1999.90;;;999.90;;
77535;SDS011;70085;44.530;0.094;2023-06-04T20:13:27;1999.90;;;999.90;;
77535;SDS011;70085;44.530;0.094;2023-06-04T20:18:59;1999.90;;;999.90;;
77535;SDS011;70085;44.530;0.094;2023-06-04T20:24:32;1999.90;;;999.90;;
77535;SDS011;70085;44.530;0.094;2023-06-04T20:30:06;1999.90;;;999.90;;
77535;SDS011;70085;44.530;0.094;2023-06-04T20:35:37;1999.90;;;999.90;;
77535;SDS011;70085;44.530;0.094;2023-06-04T20:41:09;1999.90;;;999.90;;
77535;SDS011;70085;44.530;0.094;2023-06-04T20:46:43;1999.90;;;999.90;;
77535;SDS011;70085;44.530;0.094;2023-06-04T20:52:15;1999.90;;;999.90;;
77535;SDS011;70085;44.530;0.094;2023-06-04T20:57:48;1999.90;;;999.90;;
77535;SDS011;70085;44.530;0.094;2023-06-04T21:03:21;1999.90;;;999.90;;
77535;SDS011;70085;44.530;0.094;2023-06-04T21:08:53;1999.90;;;999.90;;
77535;SDS011;70085;44.530;0.094;2023-06-04T21:14:26;1999.90;;;999.90;;
77535;SDS011;70085;44.530;0.094;2023-06-04T21:19:59;1999.90;;;999.90;;
77535;SDS011;70085;44.530;0.094;2023-06-04T21:25:33;1999.90;;;999.90;;
77535;SDS011;70085;44.530;0.094;2023-06-04T21:31:04;1999.90;;;999.90;;
77535;SDS011;70085;44.530;0.094;2023-06-04T21:36:37;1999.90;;;999.90;;
77535;SDS011;70085;44.530;0.094;2023-06-04T21:42:10;1999.90;;;999.90;;
77535;SDS011;70085;44.530;0.094;2023-06-04T21:47:42;1999.90;;;999.90;;
77535;SDS011;70085;44.530;0.094;2023-06-04T21:53:15;1999.90;;;999.90;;
77535;SDS011;70085;44.530;0.094;2023-06-04T21:58:47;1999.90;;;999.90;;
77535;SDS011;70085;44.530;0.094;2023-06-04T22:04:21;1999.90;;;999.90;;
77535;SDS011;70085;44.530;0.094;2023-06-04T22:09:54;1999.90;;;999.90;;
77535;SDS011;70085;44.530;0.094;2023-06-04T22:15:27;1999.90;;;999.90;;
77535;SDS011;70085;44.530;0.094;2023-06-04T22:21:00;1999.90;;;999.90;;
77535;SDS011;70085;44.530;0.094;2023-06-04T22:26:33;1999.90;;;999.90;;
77535;SDS011;70085;44.530;0.094;2023-06-04T22:32:07;1999.90;;;999.90;;
77535;SDS011;70085;44.530;0.094;2023-06-04T22:37:40;1999.90;;;999.90;;
77535;SDS011;70085;44.530;0.094;2023-06-04T22:43:14;1999.90;;;999.90;;
77535;SDS011;70085;44.530;0.094;2023-06-04T22:48:47;1999.90;;;999.90;;
77535;SDS011;70085;44.530;0.094;2023-06-04T22:54:20;1999.90;;;999.90;;
77535;SDS011;70085;44.530;0.094;2023-06-04T22:59:52;1999.90;;;999.90;;
77535;SDS011;70085;44.530;0.094;2023-06-04T23:05:28;1999.90;;;999.90;;
77535;SDS011;70085;44.530;0.094;2023-06-04T23:10:58;1999.90;;;999.90;;
77535;SDS011;70085;44.530;0.094;2023-06-04T23:16:31;1999.90;;;999.90;;
77535;SDS011;70085;44.530;0.094;2023-06-04T23:22:04;1999.90;;;999.90;;
77535;SDS011;70085;44.530;0.094;2023-06-04T23:27:37;1999.90;;;999.90;;
77535;SDS011;70085;44.530;0.094;2023-06-04T23:33:11;1999.90;;;999.90;;
77535;SDS011;70085;44.530;0.094;2023-06-04T23:38:44;1999.90;;;999.90;;
77535;SDS011;70085;44.530;0.094;2023-06-04T23:44:16;1999.90;;;999.90;;
77535;SDS011;70085;44.530;0.094;2023-06-04T23:49:49;1999.90;;;999.90;;
77535;SDS011;70085;44.530;0.094;2023-06-04T23:55:22;1999.90;;;999.90;;
